createdAt,value
2022-11-17T00:05:16.006Z,10.10
2022-11-17T00:15:21.034Z,10.10
2022-11-17T00:25:24.836Z,10.20
2022-11-17T00:35:29.807Z,10.20
2022-11-17T00:45:33.537Z,10.20
2022-11-17T00:55:38.535Z,10.20
2022-11-17T01:05:42.619Z,10.20
2022-11-17T01:15:47.557Z,10.10
2022-11-17T01:25:51.196Z,10.00
2022-11-17T01:35:56.667Z,10.00
2022-11-17T01:46:00.827Z,9.90
2022-11-17T01:56:11.403Z,9.90
2022-11-17T02:06:20.873Z,9.90
2022-11-17T02:16:25.841Z,9.90
2022-11-17T02:26:59.262Z,9.90
2022-11-17T02:37:11.743Z,9.90
2022-11-17T02:47:20.740Z,9.90
2022-11-17T02:57:34.359Z,9.90
2022-11-17T03:07:57.955Z,9.90
2022-11-17T03:18:12.690Z,9.90
2022-11-17T03:28:18.829Z,9.90
2022-11-17T03:38:27.720Z,9.90
2022-11-17T03:48:37.883Z,9.90
2022-11-17T03:58:53.093Z,9.80
2022-11-17T04:08:56.775Z,9.90
2022-11-17T04:19:01.681Z,9.90
2022-11-17T04:29:05.849Z,10.00
2022-11-17T04:39:11.673Z,10.00
2022-11-17T04:49:17.309Z,10.10
2022-11-17T04:59:22.677Z,10.20
2022-11-17T05:09:26.370Z,10.10
2022-11-17T05:19:33.760Z,10.10
2022-11-17T05:29:37.388Z,10.10
2022-11-17T05:39:42.458Z,10.10
2022-11-17T05:49:46.190Z,10.00
2022-11-17T05:59:55.969Z,9.90
2022-11-17T06:09:59.644Z,9.90
2022-11-17T06:20:08.586Z,10.00
2022-11-17T06:30:12.935Z,10.00
2022-11-17T06:40:18.362Z,9.80
2022-11-17T06:50:22.081Z,9.90
2022-11-17T07:00:27.552Z,10.00
2022-11-17T07:10:32.436Z,10.10
2022-11-17T07:20:37.491Z,10.20
2022-11-17T07:30:41.192Z,10.20
2022-11-17T07:40:46.328Z,10.10
2022-11-17T07:50:50.150Z,10.20
2022-11-17T08:00:55.206Z,10.30
2022-11-17T08:11:03.736Z,10.50
2022-11-17T08:21:11.018Z,10.80
2022-11-17T08:31:14.886Z,11.10
2022-11-17T08:41:21.655Z,11.30
2022-11-17T08:51:27.111Z,11.20
2022-11-17T09:01:32.284Z,11.10
2022-11-17T09:11:36.167Z,11.30
2022-11-17T09:21:41.248Z,11.90
2022-11-17T09:31:45.055Z,12.30
2022-11-17T09:41:52.640Z,12.40
2022-11-17T09:52:01.863Z,12.40
2022-11-17T10:02:11.565Z,12.50
2022-11-17T10:12:19.596Z,12.60
2022-11-17T10:22:35.773Z,13.00
2022-11-17T10:32:49.905Z,13.00
2022-11-17T10:43:23.720Z,13.00
2022-11-17T10:53:32.969Z,13.20
2022-11-17T11:03:38.479Z,13.20
2022-11-17T11:13:48.406Z,13.40
2022-11-17T11:24:05.293Z,13.80
2022-11-17T11:34:28.318Z,13.90
2022-11-17T11:44:55.508Z,13.60
2022-11-17T11:55:03.063Z,13.00
2022-11-17T12:05:20.121Z,12.80
2022-11-17T12:15:38.687Z,11.20
2022-11-17T12:25:53.574Z,12.90
2022-11-17T12:36:31.559Z,13.30
2022-11-17T12:46:37.595Z,13.70
2022-11-17T12:56:56.795Z,13.80
2022-11-17T13:07:05.334Z,13.60
2022-11-17T13:17:13.294Z,13.80
2022-11-17T13:27:25.501Z,13.90
2022-11-17T13:37:31.566Z,13.60
2022-11-17T13:47:48.406Z,13.30
2022-11-17T13:57:57.961Z,13.10
2022-11-17T14:08:22.578Z,12.70
2022-11-17T14:18:31.674Z,12.50
2022-11-17T14:28:37.112Z,12.50
2022-11-17T14:38:40.917Z,12.50
2022-11-17T14:48:46.115Z,12.30
2022-11-17T14:58:54.716Z,12.20
2022-11-17T15:09:02.505Z,12.10
2022-11-17T15:19:06.763Z,12.00
2022-11-17T15:29:16.151Z,11.90
2022-11-17T15:39:20.780Z,11.50
2022-11-17T15:49:25.856Z,11.10
2022-11-17T15:59:29.758Z,11.10
2022-11-17T16:09:35.373Z,11.10
2022-11-17T16:19:39.066Z,11.10
2022-11-17T16:29:44.157Z,11.00
2022-11-17T16:39:47.807Z,10.90
2022-11-17T16:49:55.222Z,10.80
2022-11-17T16:59:59.077Z,10.80
2022-11-17T17:10:05.470Z,10.70
2022-11-17T17:20:11.151Z,10.50
2022-11-17T17:30:18.243Z,10.50
2022-11-17T17:40:21.997Z,10.50
2022-11-17T17:50:27.041Z,10.50
2022-11-17T18:00:30.765Z,10.40
2022-11-17T18:10:37.271Z,10.20
2022-11-17T18:20:41.154Z,10.10
2022-11-17T18:30:46.211Z,9.90
2022-11-17T18:40:49.945Z,9.80
2022-11-17T18:51:18.086Z,9.90
2022-11-17T19:01:21.497Z,9.70
2022-11-17T19:11:27.419Z,9.60
2022-11-17T19:21:33.611Z,9.50
2022-11-17T19:31:39.338Z,9.40
2022-11-17T19:41:43.583Z,9.40
2022-11-17T19:51:48.768Z,9.40
2022-11-17T20:01:53.002Z,9.40
2022-11-17T20:11:58.505Z,9.10
2022-11-17T20:22:02.199Z,9.00
2022-11-17T20:32:07.394Z,8.90
2022-11-17T20:42:13.213Z,8.40
2022-11-17T20:52:18.239Z,8.30
2022-11-17T21:02:22.033Z,8.30
2022-11-17T21:12:27.182Z,8.00
2022-11-17T21:22:31.085Z,8.00
2022-11-17T21:32:36.225Z,8.30
2022-11-17T21:42:40.007Z,8.40
2022-11-17T21:52:44.953Z,8.30
2022-11-17T22:02:48.746Z,8.40
2022-11-17T22:12:53.901Z,8.10
2022-11-17T22:22:57.753Z,8.30
2022-11-17T22:33:02.753Z,8.40
2022-11-17T22:43:11.752Z,8.60
2022-11-17T22:53:19.590Z,8.70
2022-11-17T23:03:24.217Z,8.90
2022-11-17T23:13:29.770Z,9.00
2022-11-17T23:23:34.369Z,9.10
2022-11-17T23:33:42.541Z,9.10
2022-11-17T23:43:46.592Z,9.10
2022-11-17T23:53:51.769Z,9.00
